Time;durP1;ratioP1;P1;durP2;ratioP2;P2;SDS_P1;SDS_P2;PMS_P1;PMS_P2;Temp;Humidity;BMP_temperature;BMP_pressure;BME280_temperature;BME280_humidity;BME280_pressure;Samples;Min_cycle;Max_cycle;Signal;HPM_P1;HPM_P2
2023/09/03 00:02:03;;;;;;;16.30;13.50;;;;;;;23.77;77.58;99824.28;105674;1260;74383;-69
2023/09/03 00:04:30;;;;;;;14.70;12.60;;;;;;;23.80;77.33;99823.06;105891;1257;68771;-67
2023/09/03 00:06:57;;;;;;;16.50;13.70;;;;;;;23.75;77.54;99818.89;105561;1257;73239;-70
2023/09/03 00:09:24;;;;;;;15.60;13.20;;;;;;;23.80;77.39;99820.38;105678;1255;61940;-68
2023/09/03 00:11:51;;;;;;;15.80;13.00;;;;;;;23.77;77.23;99818.32;105633;1260;60626;-67
2023/09/03 00:14:18;;;;;;;14.40;12.90;;;;;;;23.70;77.38;99817.84;105851;1257;73855;-69
2023/09/03 00:16:45;;;;;;;19.00;12.70;;;;;;;23.77;76.98;99818.23;105926;1254;69285;-70
2023/09/03 00:19:12;;;;;;;21.40;13.90;;;;;;;23.85;76.71;99818.70;105867;1258;72728;-68
2023/09/03 00:21:39;;;;;;;16.80;12.70;;;;;;;23.84;76.85;99812.55;105893;1254;61823;-67
2023/09/03 00:24:06;;;;;;;15.00;13.40;;;;;;;23.91;76.36;99812.27;105877;1254;60450;-67
2023/09/03 00:26:33;;;;;;;19.10;14.40;;;;;;;23.72;77.05;99809.93;105606;1257;74268;-68
2023/09/03 00:29:00;;;;;;;20.60;14.60;;;;;;;23.91;76.08;99812.49;105709;1254;68691;-69
2023/09/03 00:31:27;;;;;;;17.20;14.30;;;;;;;23.99;75.56;99813.56;105892;1254;73081;-68
2023/09/03 00:33:55;;;;;;;16.50;13.60;;;;;;;24.00;75.07;99810.85;105729;1254;61965;-69
2023/09/03 00:36:21;;;;;;;18.50;14.90;;;;;;;23.89;75.68;99811.80;105873;1257;60446;-69
2023/09/03 00:38:49;;;;;;;17.20;14.30;;;;;;;23.98;75.25;99808.52;105896;1256;73890;-70
2023/09/03 00:41:16;;;;;;;15.40;12.30;;;;;;;23.95;75.33;99805.42;105712;1259;67350;-67
2023/09/03 00:43:43;;;;;;;18.00;15.10;;;;;;;24.01;75.00;99804.71;105681;1257;72675;-69
2023/09/03 00:46:10;;;;;;;14.60;12.40;;;;;;;24.00;74.95;99801.27;105644;1254;61778;-68
2023/09/03 00:48:38;;;;;;;17.10;12.30;;;;;;;24.02;74.66;99799.64;105922;1254;60443;-68
2023/09/03 00:51:07;;;;;;;16.20;12.80;;;;;;;23.89;75.06;99800.12;105921;1258;73530;-68
2023/09/03 00:53:35;;;;;;;14.50;13.00;;;;;;;23.96;74.99;99802.34;105637;1260;69775;-68
2023/09/03 00:56:02;;;;;;;16.00;13.40;;;;;;;24.05;74.49;99799.20;105674;1255;72708;-69
2023/09/03 00:58:29;;;;;;;15.90;14.00;;;;;;;24.07;74.08;99802.25;105826;1257;62061;-71
2023/09/03 01:00:56;;;;;;;16.50;13.90;;;;;;;24.05;74.13;99802.48;105656;1259;61154;-66
2023/09/03 01:03:25;;;;;;;19.20;14.40;;;;;;;24.08;73.64;99804.71;105579;1264;74431;-70
2023/09/03 01:05:52;;;;;;;20.40;14.40;;;;;;;24.08;73.72;99804.17;105907;1257;68882;-69
2023/09/03 01:08:19;;;;;;;17.20;13.90;;;;;;;24.10;73.74;99803.54;105754;1259;72592;-68
2023/09/03 01:11:14;;;;;;;20.40;15.10;;;;;;;24.12;73.63;99805.09;105924;1253;61941;-68
2023/09/03 01:14:04;;;;;;;21.70;15.20;;;;;;;24.20;73.54;99805.34;105750;1254;130772;-69
2023/09/03 01:16:49;;;;;;;19.70;15.30;;;;;;;24.31;72.86;99806.68;105912;1257;74342;-69
2023/09/03 01:19:48;;;;;;;20.20;13.80;;;;;;;24.29;72.80;99807.17;105853;1257;69024;-72
2023/09/03 01:22:30;;;;;;;19.00;14.20;;;;;;;24.22;72.47;99807.21;105165;1263;73091;-69
2023/09/03 01:25:38;;;;;;;20.00;16.70;;;;;;;24.21;72.59;99810.17;105391;1259;62266;-70
2023/09/03 01:28:22;;;;;;;20.40;15.90;;;;;;;24.19;72.45;99812.46;105367;1261;60509;-71
2023/09/03 01:30:51;;;;;;;21.60;15.00;;;;;;;24.30;72.21;99814.94;105359;1264;73715;-71
2023/09/03 01:33:18;;;;;;;21.20;14.80;;;;;;;24.25;72.76;99823.08;105151;1267;67279;-70
2023/09/03 01:35:45;;;;;;;18.90;14.20;;;;;;;24.20;72.45;99820.49;105029;1261;73124;-69
2023/09/03 01:38:12;;;;;;;19.60;14.30;;;;;;;24.20;72.72;99821.73;105156;1261;61950;-70
2023/09/03 01:40:41;;;;;;;18.40;15.10;;;;;;;24.36;72.41;99818.77;105018;1264;60600;-69
2023/09/03 01:43:09;;;;;;;19.70;15.50;;;;;;;24.41;72.25;99815.73;105075;1263;74500;-68
2023/09/03 01:46:15;;;;;;;18.50;14.10;;;;;;;24.31;72.41;99814.83;105093;1261;68814;-68
2023/09/03 01:49:01;;;;;;;19.70;15.10;;;;;;;24.53;71.74;99812.61;104753;1267;73513;-70
2023/09/03 01:51:37;;;;;;;19.70;15.70;;;;;;;24.49;72.03;99805.48;104073;1277;62135;-69
2023/09/03 01:54:07;;;;;;;18.60;14.80;;;;;;;24.35;73.08;99804.72;104090;1274;60571;-70
2023/09/03 01:56:36;;;;;;;18.30;14.40;;;;;;;24.47;72.48;99801.73;104372;1276;74176;-71
2023/09/03 01:59:13;;;;;;;17.60;13.80;;;;;;;24.50;72.11;99802.30;104457;1273;68649;-67
2023/09/03 02:01:40;;;;;;;23.10;16.10;;;;;;;24.45;72.31;99803.80;104701;1270;71226;-72
2023/09/03 02:04:07;;;;;;;22.60;14.60;;;;;;;24.42;72.21;99805.09;104594;1274;60667;-72
2023/09/03 02:06:34;;;;;;;16.10;13.40;;;;;;;24.41;71.75;99805.20;104369;1272;60452;-73
2023/09/03 02:09:01;;;;;;;15.40;12.40;;;;;;;24.46;71.77;99804.84;104556;1273;74300;-71
2023/09/03 02:11:27;;;;;;;16.00;14.30;;;;;;;24.44;71.94;99798.90;104565;1271;68921;-68
2023/09/03 02:13:54;;;;;;;16.70;13.60;;;;;;;24.39;71.81;99800.13;104453;1274;73081;-69
2023/09/03 02:16:21;;;;;;;25.00;13.30;;;;;;;24.24;72.64;99798.61;104420;1270;61862;-69
2023/09/03 02:18:48;;;;;;;14.20;12.70;;;;;;;24.24;73.05;99801.66;104582;1272;60622;-67
2023/09/03 02:21:15;;;;;;;15.50;11.90;;;;;;;24.30;72.96;99794.48;104561;1274;73737;-69
2023/09/03 02:23:42;;;;;;;14.10;12.40;;;;;;;24.23;73.08;99794.55;104450;1270;69124;-69
2023/09/03 02:26:08;;;;;;;22.10;12.90;;;;;;;24.26;72.54;99791.52;104653;1269;72484;-68
2023/09/03 02:28:36;;;;;;;18.50;13.00;;;;;;;23.97;73.89;99783.49;105177;1257;61660;-70
2023/09/03 02:31:03;;;;;;;16.40;12.30;;;;;;;23.91;74.53;99783.74;105442;1257;60616;-70
2023/09/03 02:33:30;;;;;;;16.30;13.30;;;;;;;23.95;74.38;99783.05;105619;1260;73685;-69
2023/09/03 02:35:57;;;;;;;15.70;12.50;;;;;;;24.03;73.86;99785.64;105528;1254;68755;-68
2023/09/03 02:38:24;;;;;;;15.40;12.60;;;;;;;24.00;74.41;99787.56;105748;1254;72653;-67
2023/09/03 02:40:51;;;;;;;20.00;13.20;;;;;;;23.83;75.30;99785.96;105595;1252;61820;-68
2023/09/03 02:43:17;;;;;;;15.70;12.90;;;;;;;24.00;74.84;99793.24;105910;1257;60414;-70
2023/09/03 02:45:44;;;;;;;18.00;13.40;;;;;;;24.08;74.45;99790.63;105899;1257;73727;-71
2023/09/03 02:48:11;;;;;;;17.90;14.00;;;;;;;24.02;74.48;99792.36;105855;1256;69001;-69
2023/09/03 02:50:39;;;;;;;15.80;13.20;;;;;;;24.16;73.80;99790.57;105724;1256;72487;-68
2023/09/03 02:53:06;;;;;;;18.30;14.20;;;;;;;24.22;72.90;99790.37;105825;1254;61827;-69
2023/09/03 02:55:33;;;;;;;17.20;14.10;;;;;;;24.21;72.68;99789.58;106009;1251;60408;-68
2023/09/03 02:58:00;;;;;;;18.60;15.00;;;;;;;24.27;72.49;99790.71;105916;1257;73838;-69
2023/09/03 03:00:28;;;;;;;18.20;15.00;;;;;;;24.09;73.38;99792.60;105879;1256;67552;-70
2023/09/03 03:02:55;;;;;;;18.10;14.50;;;;;;;24.12;73.29;99790.84;105501;1260;72760;-69
2023/09/03 03:05:22;;;;;;;18.50;14.40;;;;;;;23.97;74.28;99786.86;105838;1257;61944;-69
2023/09/03 03:07:49;;;;;;;20.30;13.50;;;;;;;23.86;75.01;99785.93;105897;1254;60460;-69
2023/09/03 03:10:16;;;;;;;19.70;14.20;;;;;;;23.84;74.66;99785.08;105935;1256;73845;-69
2023/09/03 03:12:44;;;;;;;19.40;14.50;;;;;;;23.80;74.19;99787.98;105970;1256;68861;-68
2023/09/03 03:15:12;;;;;;;16.40;14.20;;;;;;;23.83;74.23;99787.52;105936;1254;73194;-69
2023/09/03 03:17:40;;;;;;;;;;;;;;;23.82;74.54;99787.10;105701;1256;60581;-68
2023/09/03 03:20:09;;;;;;;16.30;14.50;;;;;;;23.85;74.33;99790.88;105920;1254;60411;-69
2023/09/03 03:22:36;;;;;;;18.90;14.10;;;;;;;23.92;73.42;99787.31;105907;1254;72489;-68
2023/09/03 03:25:04;;;;;;;18.10;13.30;;;;;;;23.86;73.61;99786.16;105865;1256;68869;-68
2023/09/03 03:27:32;;;;;;;16.70;12.20;;;;;;;23.84;73.57;99783.23;105618;1254;72649;-68
2023/09/03 03:29:58;;;;;;;14.70;11.70;;;;;;;23.73;73.97;99778.63;105921;1254;61776;-68
2023/09/03 03:32:26;;;;;;;15.80;12.00;;;;;;;23.73;74.28;99781.91;105719;1258;60590;-69
2023/09/03 03:34:55;;;;;;;14.70;11.10;;;;;;;23.91;73.48;99781.86;105829;1256;72896;-69
2023/09/03 03:37:22;;;;;;;12.80;11.40;;;;;;;23.96;73.05;99783.23;105744;1254;68153;-69
2023/09/03 03:39:50;;;;;;;17.00;12.40;;;;;;;23.84;73.70;99788.14;107190;1256;73317;-69
2023/09/03 03:42:18;;;;;;;17.70;12.60;;;;;;;23.87;73.31;99787.38;106500;1254;61943;-69
2023/09/03 03:44:45;;;;;;;16.00;12.40;;;;;;;23.89;72.95;99794.34;105822;1252;60447;-69
2023/09/03 03:47:12;;;;;;;17.50;12.80;;;;;;;23.79;73.55;99792.94;105744;1258;74078;-71
2023/09/03 03:49:39;;;;;;;20.20;12.00;;;;;;;23.98;72.81;99794.23;105720;1260;68654;-71
2023/09/03 03:52:06;;;;;;;13.20;10.80;;;;;;;24.15;72.16;99795.54;105515;1262;73091;-68
2023/09/03 03:54:33;;;;;;;14.20;11.80;;;;;;;24.07;72.59;99795.17;105811;1253;61820;-68
2023/09/03 03:57:00;;;;;;;18.20;12.50;;;;;;;24.17;72.39;99800.93;105685;1254;60422;-69
2023/09/03 03:59:27;;;;;;;18.00;12.40;;;;;;;24.35;71.28;99802.88;105605;1260;73894;-70
2023/09/03 04:01:55;;;;;;;;;;;;;;;24.19;72.19;99800.80;105815;1254;68549;-67
2023/09/03 04:04:22;;;;;;;18.40;11.70;;;;;;;24.14;71.64;99798.98;105658;1257;73039;-68
2023/09/03 04:06:49;;;;;;;14.90;12.10;;;;;;;24.15;71.37;99796.58;105814;1254;62608;-70
2023/09/03 04:09:16;;;;;;;16.00;13.30;;;;;;;24.12;71.25;99793.48;105806;1254;60479;-71
2023/09/03 04:11:43;;;;;;;17.20;13.20;;;;;;;23.94;71.96;99792.70;105789;1257;74816;-68
2023/09/03 04:14:10;;;;;;;14.80;12.00;;;;;;;23.86;72.05;99789.52;105699;1254;68692;-69
2023/09/03 04:16:36;;;;;;;18.80;13.80;;;;;;;23.89;71.76;99786.20;105577;1260;73156;-70
2023/09/03 04:19:03;;;;;;;32.30;17.60;;;;;;;23.95;71.52;99786.46;105542;1260;61936;-67
2023/09/03 04:21:30;;;;;;;25.70;15.70;;;;;;;24.13;70.59;99784.11;105801;1257;60578;-68
2023/09/03 04:23:57;;;;;;;26.50;16.50;;;;;;;24.19;70.29;99783.15;105784;1257;74178;-68
2023/09/03 04:26:24;;;;;;;25.50;16.70;;;;;;;24.40;69.31;99788.95;105824;1254;68656;-67
2023/09/03 04:28:53;;;;;;;22.00;14.80;;;;;;;24.40;69.36;99788.95;105799;1254;72693;-72
2023/09/03 04:31:20;;;;;;;21.30;14.90;;;;;;;24.57;68.92;99789.55;105815;1257;62000;-68
2023/09/03 04:33:47;;;;;;;21.00;14.50;;;;;;;24.70;68.85;99789.95;105661;1254;60581;-67
2023/09/03 04:36:14;;;;;;;21.30;15.60;;;;;;;24.77;68.55;99789.00;105532;1260;74444;-70
2023/09/03 04:38:42;;;;;;;20.40;14.40;;;;;;;24.81;68.63;99790.01;105750;1254;68434;-69
2023/09/03 04:41:10;;;;;;;;;;;;;;;24.73;69.12;99785.20;105831;1254;73250;-69
2023/09/03 04:43:46;;;;;;;23.70;15.40;;;;;;;24.98;66.58;99781.73;105754;1254;61964;-67
2023/09/03 04:46:16;;;;;;;21.70;14.70;;;;;;;24.94;67.31;99783.36;105636;1254;60392;-69
2023/09/03 04:48:42;;;;;;;23.00;15.20;;;;;;;24.77;68.29;99781.95;105812;1257;73952;-70
2023/09/03 04:51:09;;;;;;;20.40;14.60;;;;;;;24.91;68.64;99786.77;105802;1254;68520;-69
2023/09/03 04:53:37;;;;;;;18.20;13.10;;;;;;;25.27;67.37;99786.27;105934;1257;72740;-68
2023/09/03 04:56:11;;;;;;;18.30;12.90;;;;;;;25.34;66.30;99780.27;105837;1257;60524;-68
2023/09/03 04:58:38;;;;;;;16.10;12.10;;;;;;;25.22;65.06;99782.02;106010;1255;60406;-70
2023/09/03 05:01:15;;;;;;;18.30;12.50;;;;;;;25.13;66.41;99777.02;105886;1257;73673;-68
2023/09/03 05:03:43;;;;;;;16.20;11.00;;;;;;;25.22;66.87;99774.10;105582;1260;67532;-68
2023/09/03 05:06:15;;;;;;;19.00;11.60;;;;;;;25.46;65.02;99774.98;105251;1264;71267;-67
2023/09/03 05:08:43;;;;;;;15.90;11.10;;;;;;;25.43;65.51;99771.90;105917;1257;60856;-67
2023/09/03 05:11:12;;;;;;;12.40;10.90;;;;;;;25.51;66.17;99773.80;105736;1256;60549;-67
2023/09/03 05:13:40;;;;;;;16.50;11.40;;;;;;;25.61;66.56;99774.00;105891;1254;71804;-66
2023/09/03 05:16:07;;;;;;;16.60;11.50;;;;;;;25.68;66.20;99777.24;105905;1254;68902;-67
2023/09/03 05:18:35;;;;;;;13.40;10.70;;;;;;;25.60;65.49;99777.34;105657;1260;72876;-61
2023/09/03 05:21:08;;;;;;;17.10;11.70;;;;;;;25.66;65.19;99781.05;105935;1253;62466;-67
2023/09/03 05:23:36;;;;;;;13.70;11.40;;;;;;;25.58;64.42;99781.36;105657;1252;60442;-67
2023/09/03 05:26:03;;;;;;;17.70;11.10;;;;;;;25.80;63.83;99783.87;105625;1260;73665;-66
2023/09/03 05:28:32;;;;;;;23.30;11.20;;;;;;;25.90;63.45;99785.66;105695;1252;68763;-66
2023/09/03 05:30:59;;;;;;;;;;;;;;;26.13;63.52;99783.61;105025;1254;73107;-66
2023/09/03 05:33:26;;;;;;;14.30;10.90;;;;;;;26.42;61.92;99777.42;105501;1254;61830;-66
2023/09/03 05:35:53;;;;;;;16.10;11.80;;;;;;;26.64;61.10;99771.63;105584;1252;60544;-66
2023/09/03 05:38:21;;;;;;;16.20;10.90;;;;;;;26.68;61.01;99775.49;105934;1256;73876;-67
2023/09/03 05:40:48;;;;;;;14.40;11.80;;;;;;;26.80;58.89;99777.27;105951;1254;68584;-68
2023/09/03 05:43:15;;;;;;;15.20;10.50;;;;;;;26.89;58.73;99779.70;105599;1254;73112;-69
2023/09/03 05:45:46;;;;;;;13.80;10.40;;;;;;;27.45;57.11;99780.33;105587;1257;62009;-66
2023/09/03 05:48:14;;;;;;;11.40;9.40;;;;;;;27.76;55.05;99779.30;105926;1256;60530;-67
2023/09/03 05:50:42;;;;;;;16.30;10.20;;;;;;;27.95;54.19;99781.33;105733;1254;73878;-62
2023/09/03 05:53:09;;;;;;;14.10;9.60;;;;;;;27.86;54.45;99778.41;105725;1253;68984;-66
2023/09/03 05:55:39;;;;;;;24.50;11.10;;;;;;;27.86;53.00;99777.14;105804;1254;73232;-58
2023/09/03 05:58:06;;;;;;;13.40;8.90;;;;;;;27.83;53.64;99780.71;105724;1254;62060;-64
2023/09/03 06:00:34;;;;;;;14.70;11.40;;;;;;;27.73;52.80;99784.11;105894;1254;60496;-63
2023/09/03 06:03:00;;;;;;;14.10;10.90;;;;;;;27.64;52.87;99782.53;105309;1263;73869;-62
2023/09/03 06:05:27;;;;;;;19.00;12.20;;;;;;;27.48;53.16;99784.16;105247;1260;69021;-60
2023/09/03 06:07:57;;;;;;;13.00;9.90;;;;;;;27.58;53.02;99786.02;105122;1265;73342;-60
2023/09/03 06:10:24;;;;;;;12.60;9.40;;;;;;;27.56;53.32;99786.30;105203;1259;62002;-62
2023/09/03 06:12:51;;;;;;;12.30;9.70;;;;;;;27.72;52.57;99788.90;105235;1260;60776;-61
2023/09/03 06:15:18;;;;;;;9.60;8.10;;;;;;;27.71;51.89;99785.89;105292;1262;74423;-60
2023/09/03 06:17:49;;;;;;;10.30;8.90;;;;;;;27.99;51.47;99785.50;105208;1260;68871;-62
2023/09/03 06:20:16;;;;;;;10.80;8.70;;;;;;;28.10;50.58;99788.23;105221;1259;72664;-59
2023/09/03 06:22:43;;;;;;;11.80;9.00;;;;;;;28.20;50.61;99790.06;105246;1259;62203;-65
2023/09/03 06:25:10;;;;;;;10.50;8.20;;;;;;;28.52;49.82;99788.19;105140;1261;60533;-59
2023/09/03 06:27:37;;;;;;;13.20;8.30;;;;;;;28.81;49.34;99787.41;105185;1264;73727;-60
2023/09/03 06:30:05;;;;;;;12.60;8.90;;;;;;;28.75;49.44;99782.73;105131;1266;69136;-61
2023/09/03 06:32:32;;;;;;;;;;;;;;;28.78;49.22;99779.46;105150;1267;72754;-60
2023/09/03 06:34:59;;;;;;;9.40;7.90;;;;;;;29.16;47.36;99782.01;105525;1256;62239;-60
2023/09/03 06:37:26;;;;;;;7.50;6.10;;;;;;;29.57;45.65;99785.95;105655;1255;60537;-60
2023/09/03 06:39:52;;;;;;;9.30;7.40;;;;;;;29.92;43.86;99790.15;105609;1259;74533;-61
2023/09/03 06:42:19;;;;;;;7.70;6.10;;;;;;;30.20;42.73;99791.31;105591;1257;68542;-63
2023/09/03 06:44:46;;;;;;;8.50;6.00;;;;;;;30.07;40.89;99793.09;105660;1259;73264;-59
2023/09/03 06:47:13;;;;;;;9.00;5.90;;;;;;;29.86;40.07;99793.59;105923;1254;60378;-59
2023/09/03 06:49:40;;;;;;;9.00;5.40;;;;;;;29.69;39.94;99794.95;105937;1254;60415;-59
2023/09/03 06:52:06;;;;;;;9.30;5.30;;;;;;;29.67;39.72;99789.80;105937;1256;74165;-60
2023/09/03 06:54:33;;;;;;;10.20;5.50;;;;;;;29.72;39.80;99791.84;105881;1254;68982;-62
2023/09/03 06:57:00;;;;;;;7.40;4.80;;;;;;;29.84;39.53;99792.20;105898;1255;72728;-58
2023/09/03 06:59:27;;;;;;;7.30;5.40;;;;;;;30.13;39.35;99793.54;105861;1253;60414;-62
2023/09/03 07:02:01;;;;;;;8.50;4.70;;;;;;;30.47;39.35;99792.93;105896;1254;60533;-60
2023/09/03 07:04:28;;;;;;;6.50;5.60;;;;;;;31.01;38.17;99790.36;105746;1260;74484;-65
2023/09/03 07:06:54;;;;;;;6.70;5.10;;;;;;;31.22;37.79;99789.45;105895;1254;69023;-60
2023/09/03 07:09:21;;;;;;;6.80;4.70;;;;;;;31.39;37.48;99795.41;105936;1253;72415;-59
2023/09/03 07:11:48;;;;;;;5.60;4.70;;;;;;;31.22;37.37;99796.66;105881;1254;60514;-60
2023/09/03 07:14:15;;;;;;;6.10;4.70;;;;;;;30.77;37.55;99799.59;105665;1254;60485;-60
2023/09/03 07:16:42;;;;;;;6.60;4.40;;;;;;;30.94;37.94;99796.96;105914;1256;73832;-61
2023/09/03 07:19:09;;;;;;;13.70;4.50;;;;;;;31.20;37.24;99801.41;105635;1254;69128;-62
2023/09/03 07:21:35;;;;;;;4.90;4.40;;;;;;;31.54;36.60;99797.63;105882;1254;63890;-64
2023/09/03 07:24:03;;;;;;;7.70;5.20;;;;;;;31.45;36.26;99798.23;105613;1254;60530;-60
2023/09/03 07:26:30;;;;;;;8.30;5.30;;;;;;;31.19;36.41;99801.23;105573;1253;60608;-60
2023/09/03 07:28:56;;;;;;;7.50;4.50;;;;;;;31.15;36.24;99800.82;105890;1256;74433;-62
2023/09/03 07:31:23;;;;;;;5.10;4.10;;;;;;;31.62;36.45;99804.09;105721;1254;68526;-59
2023/09/03 07:33:50;;;;;;;6.10;4.20;;;;;;;31.82;35.51;99803.20;105650;1260;73601;-60
2023/09/03 07:36:17;;;;;;;4.90;4.30;;;;;;;32.30;35.29;99803.89;105601;1254;60700;-59
2023/09/03 07:38:44;;;;;;;7.10;4.20;;;;;;;32.70;35.02;99807.80;105882;1253;60568;-60
2023/09/03 07:41:10;;;;;;;6.20;4.20;;;;;;;33.08;33.82;99805.73;105931;1256;65082;-61
2023/09/03 07:43:37;;;;;;;5.50;3.90;;;;;;;33.28;33.64;99805.53;105905;1253;60491;-59
2023/09/03 07:46:05;;;;;;;4.90;4.30;;;;;;;33.21;33.50;99802.45;105938;1254;64008;-59
2023/09/03 07:48:32;;;;;;;;;;;;;;;32.79;33.87;99802.65;105657;1254;60536;-60
2023/09/03 07:50:59;;;;;;;4.30;3.90;;;;;;;32.21;34.29;99802.85;105933;1254;60568;-60
2023/09/03 07:53:26;;;;;;;4.60;4.00;;;;;;;31.58;34.45;99803.67;105690;1262;73999;-60
2023/09/03 07:55:53;;;;;;;5.50;4.30;;;;;;;31.49;35.08;99799.66;106486;1253;69106;-57
2023/09/03 07:58:19;;;;;;;6.60;3.60;;;;;;;31.29;35.47;99800.27;106177;1255;72736;-59
2023/09/03 08:00:46;;;;;;;7.20;5.00;;;;;;;31.36;35.47;99804.83;105662;1253;60616;-59
2023/09/03 08:03:13;;;;;;;4.30;3.90;;;;;;;31.91;34.99;99805.70;105609;1254;60745;-67
2023/09/03 08:05:40;;;;;;;7.10;4.30;;;;;;;32.28;34.67;99801.52;105911;1257;74253;-60
2023/09/03 08:08:07;;;;;;;6.30;4.50;;;;;;;32.38;34.67;99796.59;105697;1254;60513;-60
2023/09/03 08:10:34;;;;;;;7.30;4.00;;;;;;;32.68;33.87;99799.55;105867;1254;63998;-58
2023/09/03 08:13:00;;;;;;;5.80;3.80;;;;;;;32.87;33.29;99801.69;105637;1253;60489;-59
2023/09/03 08:15:27;;;;;;;5.20;4.40;;;;;;;32.88;32.84;99804.71;105968;1254;60537;-59
2023/09/03 08:18:10;;;;;;;4.40;3.70;;;;;;;33.01;32.62;99804.93;105906;1256;65370;-61
2023/09/03 08:20:37;;;;;;;5.80;4.30;;;;;;;33.08;32.62;99808.27;105920;1254;60443;-59
2023/09/03 08:23:04;;;;;;;7.10;3.60;;;;;;;32.92;31.99;99812.57;105620;1254;64153;-67
2023/09/03 08:25:31;;;;;;;6.90;4.10;;;;;;;32.51;32.33;99809.55;105925;1254;60606;-58
2023/09/03 08:27:57;;;;;;;5.00;4.30;;;;;;;32.22;32.48;99811.81;105918;1253;60437;-59
2023/09/03 08:30:24;;;;;;;5.40;3.70;;;;;;;31.98;32.97;99813.96;105913;1252;65265;-57
2023/09/03 08:32:51;;;;;;;5.50;4.20;;;;;;;32.05;32.83;99816.77;105924;1254;60463;-58
2023/09/03 08:35:18;;;;;;;8.20;4.10;;;;;;;32.38;32.09;99815.65;105964;1256;72558;-59
2023/09/03 08:37:45;;;;;;;5.20;4.10;;;;;;;32.52;31.75;99815.13;105564;1254;60547;-58
2023/09/03 08:40:12;;;;;;;5.50;4.30;;;;;;;32.30;31.48;99822.93;105874;1254;60526;-60
2023/09/03 08:42:40;;;;;;;5.00;3.60;;;;;;;32.29;32.06;99819.69;105630;1253;65108;-61
2023/09/03 08:45:11;;;;;;;5.40;4.30;;;;;;;31.97;31.76;99814.77;105597;1254;68856;-60
2023/09/03 08:47:39;;;;;;;6.20;4.70;;;;;;;31.72;31.91;99808.64;105891;1256;64738;-59
2023/09/03 08:50:07;;;;;;;4.60;4.20;;;;;;;31.77;32.18;99807.56;105924;1254;60530;-62
2023/09/03 08:52:34;;;;;;;5.60;4.20;;;;;;;31.93;32.14;99810.86;105668;1254;60568;-60
2023/09/03 08:55:01;;;;;;;4.80;4.20;;;;;;;32.38;31.99;99806.77;105674;1260;73806;-62
2023/09/03 08:57:28;;;;;;;5.00;3.80;;;;;;;32.87;31.74;99806.44;105837;1251;60510;-59
2023/09/03 08:59:56;;;;;;;6.10;4.20;;;;;;;33.07;30.85;99806.85;105656;1254;64029;-62
2023/09/03 09:02:23;;;;;;;5.50;4.20;;;;;;;33.25;30.75;99806.25;105907;1254;62205;-62
2023/09/03 09:04:50;;;;;;;4.30;3.90;;;;;;;33.38;30.92;99803.90;105750;1252;60556;-59
2023/09/03 09:07:20;;;;;;;7.60;4.00;;;;;;;33.29;30.90;99797.82;105664;1256;65753;-61
2023/09/03 09:09:47;;;;;;;5.70;4.40;;;;;;;32.71;30.64;99798.75;105916;1254;60546;-62
2023/09/03 09:12:59;;;;;;;5.90;4.20;;;;;;;32.49;31.06;99800.74;105717;1253;63824;-62
2023/09/03 09:15:25;;;;;;;6.20;4.20;;;;;;;32.86;31.10;99800.18;105582;1257;60441;-61
2023/09/03 09:17:52;;;;;;;7.50;4.20;;;;;;;33.14;30.76;99804.14;105234;1257;60546;-61
2023/09/03 09:20:19;;;;;;;6.40;3.70;;;;;;;33.36;30.86;99803.83;105520;1262;65502;-60
2023/09/03 09:22:47;;;;;;;5.60;4.30;;;;;;;33.17;31.43;99801.03;105299;1257;60529;-59
2023/09/03 09:25:24;;;;;;;4.50;3.80;;;;;;;33.21;31.37;99801.33;105566;1258;62619;-61
2023/09/03 09:27:52;;;;;;;8.80;6.00;;;;;;;33.39;31.05;99804.85;105532;1257;60469;-61
2023/09/03 09:30:24;;;;;;;8.00;5.70;;;;;;;33.84;30.62;99809.77;105533;1257;60571;-61
2023/09/03 09:33:07;;;;;;;6.50;4.30;;;;;;;33.78;30.73;99808.13;105302;1264;65109;-58
2023/09/03 09:35:35;;;;;;;13.00;4.50;;;;;;;33.61;31.20;99807.65;105578;1262;60539;-61
2023/09/03 09:38:06;;;;;;;7.50;4.20;;;;;;;33.74;31.43;99809.51;105528;1257;64758;-59
2023/09/03 09:40:35;;;;;;;6.00;4.10;;;;;;;34.09;30.80;99809.73;105224;1261;61109;-62
2023/09/03 09:43:05;;;;;;;7.00;3.50;;;;;;;34.45;30.22;99809.41;105574;1257;60416;-60
2023/09/03 09:45:33;;;;;;;3.90;3.50;;;;;;;34.80;29.73;99808.58;105550;1261;65024;-62
2023/09/03 09:48:08;;;;;;;6.20;3.70;;;;;;;34.61;29.31;99811.74;105529;1258;60620;-61
2023/09/03 09:50:42;;;;;;;7.80;3.80;;;;;;;33.83;30.20;99802.99;105208;1258;63866;-61
2023/09/03 09:53:24;;;;;;;4.70;3.80;;;;;;;33.13;31.06;99799.11;105533;1253;60354;-60
2023/09/03 09:56:07;;;;;;;5.40;4.10;;;;;;;32.94;31.65;99798.43;105769;1254;60543;-57
2023/09/03 09:58:39;;;;;;;6.90;3.80;;;;;;;32.51;32.27;99792.24;105641;1260;65960;-60
2023/09/03 10:01:06;;;;;;;4.90;4.00;;;;;;;32.52;32.55;99787.98;105693;1252;60600;-58
2023/09/03 10:03:40;;;;;;;10.00;4.00;;;;;;;32.55;31.82;99783.29;105629;1256;63998;-61
2023/09/03 10:06:07;;;;;;;4.00;3.60;;;;;;;32.43;31.67;99783.91;105653;1254;60520;-58
2023/09/03 10:08:34;;;;;;;5.00;3.90;;;;;;;32.24;32.12;99782.46;105711;1254;60988;-60
2023/09/03 10:11:01;;;;;;;4.70;4.00;;;;;;;32.30;31.87;99779.53;105511;1260;73785;-57
2023/09/03 10:13:32;;;;;;;8.60;4.40;;;;;;;31.83;32.41;99775.94;105593;1254;68692;-61
2023/09/03 10:16:02;;;;;;;5.10;4.00;;;;;;;32.28;31.52;99778.83;105883;1255;72616;-59
2023/09/03 10:18:30;;;;;;;7.20;3.90;;;;;;;32.47;30.90;99780.83;105940;1254;60430;-57
2023/09/03 10:20:58;;;;;;;5.00;3.50;;;;;;;32.33;30.74;99775.65;105945;1256;60415;-59
2023/09/03 10:23:25;;;;;;;8.70;5.10;;;;;;;31.98;31.44;99774.95;105641;1252;65225;-59
2023/09/03 10:25:52;;;;;;;9.10;4.20;;;;;;;32.07;32.02;99774.96;105656;1254;69186;-60
2023/09/03 10:28:34;;;;;;;6.20;3.90;;;;;;;32.86;30.91;99773.51;105667;1259;72819;-63
2023/09/03 10:31:01;;;;;;;3.90;3.20;;;;;;;33.04;30.25;99774.51;105686;1254;60537;-60
2023/09/03 10:33:28;;;;;;;6.10;4.20;;;;;;;33.17;30.55;99775.91;105733;1253;60456;-59
2023/09/03 10:36:12;;;;;;;6.60;3.60;;;;;;;33.64;29.92;99777.89;105753;1257;65225;-58
2023/09/03 10:38:39;;;;;;;4.90;3.40;;;;;;;34.44;28.77;99785.44;105686;1254;60636;-61
2023/09/03 10:41:22;;;;;;;8.40;4.00;;;;;;;34.89;28.42;99788.96;105878;1254;63860;-58
2023/09/03 10:43:54;;;;;;;6.30;3.40;;;;;;;34.47;28.04;99783.92;105897;1254;60431;-59
2023/09/03 10:46:27;;;;;;;6.00;3.30;;;;;;;33.93;28.95;99776.16;105941;1256;60345;-59
2023/09/03 10:48:55;;;;;;;4.10;3.70;;;;;;;34.08;28.98;99772.48;105682;1259;65225;-60
2023/09/03 10:51:39;;;;;;;5.80;3.60;;;;;;;34.20;28.53;99766.61;105766;1254;60501;-59
2023/09/03 10:54:20;;;;;;;5.90;3.90;;;;;;;34.06;28.84;99762.71;105673;1251;64034;-59
2023/09/03 10:57:06;;;;;;;4.40;3.60;;;;;;;33.57;29.40;99762.02;106001;1251;60539;-58
2023/09/03 10:59:58;;;;;;;5.90;3.90;;;;;;;33.00;29.76;99754.25;105627;1254;60486;-58
2023/09/03 11:02:26;;;;;;;5.70;4.50;;;;;;;32.98;30.13;99750.05;105687;1259;65265;-58
2023/09/03 11:05:11;;;;;;;4.30;3.80;;;;;;;33.22;30.35;99740.61;105355;1254;60626;-60
2023/09/03 11:07:39;;;;;;;6.00;4.10;;;;;;;33.00;30.48;99733.98;105553;1254;64186;-57
2023/09/03 11:10:21;;;;;;;;;;;;;;;32.76;30.86;99733.88;105715;1254;60438;-58
2023/09/03 11:12:48;;;;;;;6.70;3.50;;;;;;;32.54;31.11;99732.17;105911;1254;60459;-57
2023/09/03 11:15:15;;;;;;;8.30;4.60;;;;;;;32.49;31.00;99732.40;105902;1252;65205;-59
2023/09/03 11:17:55;;;;;;;5.80;4.10;;;;;;;32.26;31.05;99729.86;105913;1254;60536;-58
2023/09/03 11:20:29;;;;;;;6.10;4.70;;;;;;;32.15;31.67;99725.65;105952;1254;65103;-59
2023/09/03 11:23:16;;;;;;;6.60;4.00;;;;;;;32.39;32.19;99723.83;105661;1254;60451;-57
2023/09/03 11:25:43;;;;;;;4.40;3.50;;;;;;;32.50;31.54;99719.53;105930;1254;60533;-58
2023/09/03 11:28:13;;;;;;;6.10;4.10;;;;;;;32.95;31.12;99717.73;105629;1259;65225;-60
2023/09/03 11:30:45;;;;;;;5.30;4.30;;;;;;;33.44;30.38;99715.89;105672;1254;60583;-61